Wanderoos, Wisconsin
Current Conditions -  °F | °C
As of 8:35 PM on Saturday 20 Dec 2014 (Local Time) from KOEO Reporting Station
Overcast Overcast  
Wind Chill: 25°   Ceiling: 1300
Heat Index: 32°   Visibility: 7mi
Dew Point: 31°   Wind: 8mph
Humidity: 98%   Direction: 150°SSE
Pressure: 30.13"   Gusts: NA
Location:  45.3559°N, 92.3527°W
Report Text: KOEO 210235Z AUTO 15007KT 7SM OVC013 00/00 A3013 RMK AO2 T00001003
Loading
Personal Weather Stations






























Interactive Weather Map New forecast layout! Learn more

10-Day Weather Forecast

Advertisements
Track Severe Weather on mobile